Time;durP1;ratioP1;P1;durP2;ratioP2;P2;SDS_P1;SDS_P2;PMS_P1;PMS_P2;Temp;Humidity;BMP_temperature;BMP_pressure;BME280_temperature;BME280_humidity;BME280_pressure;Samples;Min_cycle;Max_cycle;Signal;HPM_P1;HPM_P2
2022/09/15 00:00:52;;;;;;;6.10;2.10;;;;;;;16.58;100.00;94644.81;5051114;28;20524;-77
2022/09/15 00:03:33;;;;;;;3.90;2.00;;;;;;;16.59;100.00;94646.34;5049126;28;20052;-77
2022/09/15 00:05:58;;;;;;;3.70;2.40;;;;;;;16.55;100.00;94656.06;5045322;28;20542;-77
2022/09/15 00:08:24;;;;;;;3.53;2.08;;;;;;;16.51;100.00;94644.56;5050594;28;20387;-76
2022/09/15 00:10:57;;;;;;;6.93;2.10;;;;;;;16.49;100.00;94646.75;5046370;28;20556;-77
2022/09/15 00:13:24;;;;;;;6.32;2.42;;;;;;;16.49;100.00;94641.44;5044697;28;20052;-76
2022/09/15 00:15:50;;;;;;;8.75;2.10;;;;;;;16.41;100.00;94646.53;5046798;28;20060;-75
2022/09/15 00:18:16;;;;;;;3.55;2.03;;;;;;;16.44;100.00;94643.22;5045989;28;20470;-76
2022/09/15 00:20:43;;;;;;;5.75;2.30;;;;;;;16.43;100.00;94644.34;5044592;28;20039;-77
2022/09/15 00:23:10;;;;;;;4.05;1.98;;;;;;;16.40;100.00;94634.34;5049150;28;20036;-77
2022/09/15 00:25:43;;;;;;;8.93;2.33;;;;;;;16.30;100.00;94629.44;5037714;28;20049;-76
2022/09/15 00:28:08;;;;;;;4.70;2.08;;;;;;;16.27;100.00;94627.44;5042722;28;20067;-76
2022/09/15 00:30:34;;;;;;;5.70;2.17;;;;;;;16.23;100.00;94629.19;5044629;28;20042;-76
2022/09/15 00:32:59;;;;;;;7.78;2.10;;;;;;;16.22;100.00;94632.94;5049649;28;20037;-76
2022/09/15 00:35:25;;;;;;;5.00;2.08;;;;;;;16.23;100.00;94623.88;5039056;28;20037;-76
2022/09/15 00:37:50;;;;;;;6.97;2.13;;;;;;;16.16;100.00;94618.34;5045052;28;20511;-76
2022/09/15 00:40:15;;;;;;;5.40;2.15;;;;;;;16.13;100.00;94622.41;5043814;28;20063;-76
2022/09/15 00:42:41;;;;;;;5.43;2.05;;;;;;;16.11;100.00;94617.44;5046671;28;20045;-76
2022/09/15 00:45:14;;;;;;;4.10;1.83;;;;;;;16.15;100.00;94622.09;5041570;28;20080;-76
2022/09/15 00:47:40;;;;;;;6.50;1.90;;;;;;;16.08;100.00;94610.13;5038309;28;20037;-76
2022/09/15 00:50:10;;;;;;;3.88;1.90;;;;;;;16.15;100.00;94611.47;5042999;28;20418;-76
2022/09/15 00:52:52;;;;;;;4.85;1.83;;;;;;;16.13;100.00;94611.78;5047349;28;20072;-77
2022/09/15 00:55:24;;;;;;;3.75;2.10;;;;;;;16.07;100.00;94603.25;5046679;28;20045;-76
2022/09/15 00:58:02;;;;;;;7.22;1.90;;;;;;;16.08;100.00;94607.47;5046360;28;20458;-76
2022/09/15 01:00:28;;;;;;;3.85;2.03;;;;;;;16.07;100.00;94611.22;5047477;28;20067;-77
2022/09/15 01:02:55;;;;;;;3.22;1.75;;;;;;;16.02;100.00;94603.47;5048846;28;20038;-77
2022/09/15 01:05:25;;;;;;;3.00;2.10;;;;;;;16.00;100.00;94600.34;5044822;28;20114;-77
2022/09/15 01:08:01;;;;;;;4.43;1.90;;;;;;;16.00;100.00;94603.00;5041769;28;20041;-76
2022/09/15 01:10:31;;;;;;;2.53;1.70;;;;;;;16.05;100.00;94597.50;5045439;28;20049;-77
2022/09/15 01:12:59;;;;;;;3.28;1.83;;;;;;;16.06;100.00;94593.75;5040137;28;20046;-77
2022/09/15 01:15:45;;;;;;;4.47;2.05;;;;;;;16.04;100.00;94595.94;5046873;28;20066;-77
2022/09/15 01:18:33;;;;;;;5.60;2.20;;;;;;;16.04;100.00;94593.28;5040847;28;20037;-77
2022/09/15 01:21:05;;;;;;;4.65;2.10;;;;;;;16.01;100.00;94593.94;5042090;28;20122;-76
2022/09/15 01:23:57;;;;;;;3.40;2.03;;;;;;;16.14;100.00;94594.00;5044490;28;20064;-76
2022/09/15 01:26:56;;;;;;;3.28;2.00;;;;;;;16.07;100.00;94584.69;5047485;28;20514;-77
2022/09/15 01:29:34;;;;;;;5.05;2.00;;;;;;;16.15;100.00;94590.22;5037019;28;20072;-76
2022/09/15 01:35:00;;;;;;;13.27;2.25;;;;;;;16.31;100.00;94583.22;5044697;28;20064;-76
2022/09/15 01:37:31;;;;;;;8.18;2.00;;;;;;;16.26;100.00;94580.75;5041720;28;20447;-77
2022/09/15 01:40:00;;;;;;;4.68;2.10;;;;;;;16.37;100.00;94587.19;5045522;28;20114;-77
2022/09/15 01:42:29;;;;;;;3.97;1.90;;;;;;;16.38;100.00;94583.44;5035232;28;20036;-77
2022/09/15 01:45:00;;;;;;;3.22;1.88;;;;;;;16.47;100.00;94583.34;5038640;28;20048;-76
2022/09/15 01:47:28;;;;;;;5.75;2.00;;;;;;;16.57;100.00;94584.81;5044513;28;20075;-77
2022/09/15 01:49:57;;;;;;;3.80;1.98;;;;;;;16.53;100.00;94583.91;5043828;28;20037;-77
2022/09/15 01:52:23;;;;;;;6.90;2.13;;;;;;;16.65;100.00;94585.81;5043897;28;20046;-77
2022/09/15 01:54:54;;;;;;;6.78;1.95;;;;;;;16.66;100.00;94588.13;5047800;28;20048;-77
2022/09/15 01:57:20;;;;;;;3.53;1.80;;;;;;;16.70;100.00;94583.72;5036773;28;20545;-77
2022/09/15 01:59:48;;;;;;;5.72;2.03;;;;;;;16.74;100.00;94589.94;5041688;28;20041;-76
2022/09/15 02:02:23;;;;;;;3.85;1.80;;;;;;;16.88;100.00;94586.19;5045707;28;20041;-77
2022/09/15 02:04:58;;;;;;;7.20;2.33;;;;;;;16.86;100.00;94585.72;5054688;28;20083;-77
2022/09/15 02:07:43;;;;;;;9.30;2.80;;;;;;;16.86;100.00;94591.03;5044162;28;20046;-77
2022/09/15 02:10:31;;;;;;;4.03;1.98;;;;;;;16.86;100.00;94586.50;5047629;28;20033;-77
2022/09/15 02:13:15;;;;;;;3.92;1.80;;;;;;;16.88;100.00;94584.31;5046839;28;20033;-77
2022/09/15 02:15:51;;;;;;;3.45;2.05;;;;;;;16.80;100.00;94583.28;5045739;28;20047;-76
2022/09/15 02:18:29;;;;;;;3.70;1.83;;;;;;;16.85;100.00;94578.84;5046278;28;20049;-77
2022/09/15 02:21:06;;;;;;;4.65;2.17;;;;;;;16.82;100.00;94590.16;5045808;28;20033;-77
2022/09/15 02:23:39;;;;;;;3.45;1.70;;;;;;;16.78;100.00;94588.16;5045519;28;20055;-77
2022/09/15 02:26:16;;;;;;;5.10;2.00;;;;;;;16.82;100.00;94587.50;5056593;28;20048;-77
2022/09/15 02:28:44;;;;;;;6.50;2.20;;;;;;;16.75;100.00;94580.84;5033193;28;20038;-77
2022/09/15 02:31:14;;;;;;;4.03;2.10;;;;;;;16.76;100.00;94581.63;5046976;28;20104;-77
2022/09/15 02:33:43;;;;;;;4.00;1.95;;;;;;;16.71;100.00;94595.13;5042941;28;20072;-77
2022/09/15 02:36:13;;;;;;;4.75;2.13;;;;;;;16.69;100.00;94584.81;5039577;28;20038;-77
2022/09/15 02:38:45;;;;;;;3.22;1.77;;;;;;;16.60;100.00;94579.59;5041084;28;20041;-77
2022/09/15 02:41:12;;;;;;;4.43;2.17;;;;;;;16.67;100.00;94583.63;5039849;28;20128;-77
2022/09/15 02:43:48;;;;;;;5.95;2.17;;;;;;;16.67;100.00;94584.38;5047495;28;20037;-77
2022/09/15 02:46:16;;;;;;;3.47;1.90;;;;;;;16.69;100.00;94576.84;5038328;28;20042;-77
2022/09/15 02:48:41;;;;;;;3.67;2.00;;;;;;;16.64;100.00;94579.75;5045314;28;20033;-77
2022/09/15 02:51:06;;;;;;;4.25;2.10;;;;;;;16.66;100.00;94582.81;5045120;28;20044;-77
2022/09/15 02:53:33;;;;;;;5.00;2.08;;;;;;;16.62;100.00;94581.94;5034939;28;20469;-77
2022/09/15 02:55:58;;;;;;;5.22;2.20;;;;;;;16.64;100.00;94585.06;5055010;28;20037;-77
2022/09/15 02:58:24;;;;;;;3.58;2.10;;;;;;;16.65;100.00;94589.25;5040512;28;20036;-77
2022/09/15 03:00:50;;;;;;;5.60;2.00;;;;;;;16.55;100.00;94579.03;5045819;28;20491;-78
2022/09/15 03:03:17;;;;;;;5.28;1.73;;;;;;;16.62;100.00;94576.63;5043952;28;20305;-76
2022/09/15 03:05:42;;;;;;;2.72;1.90;;;;;;;16.58;100.00;94575.75;5043131;28;20049;-77
2022/09/15 03:08:08;;;;;;;5.05;1.98;;;;;;;16.59;100.00;94578.06;5040418;28;20047;-76
2022/09/15 03:10:34;;;;;;;8.00;2.25;;;;;;;16.54;100.00;94574.84;5045014;28;20417;-76
2022/09/15 03:12:59;;;;;;;6.25;2.10;;;;;;;16.61;100.00;94580.41;5042491;28;20041;-77
2022/09/15 03:15:25;;;;;;;5.60;2.38;;;;;;;16.50;100.00;94580.03;5038367;28;20487;-76
2022/09/15 03:17:52;;;;;;;3.92;1.77;;;;;;;16.49;100.00;94585.69;5046566;28;20083;-76
2022/09/15 03:20:20;;;;;;;4.53;1.90;;;;;;;16.56;100.00;94593.88;5041411;28;20127;-76
2022/09/15 03:22:48;;;;;;;5.32;2.00;;;;;;;16.50;100.00;94585.34;5046089;28;20036;-77
2022/09/15 03:25:14;;;;;;;6.43;2.10;;;;;;;16.54;100.00;94601.41;5047626;28;20509;-76
2022/09/15 03:27:41;;;;;;;5.43;2.00;;;;;;;16.55;100.00;94593.13;5044241;28;20127;-76
2022/09/15 03:30:07;;;;;;;4.80;2.33;;;;;;;16.53;100.00;94583.91;5043166;28;20047;-76
2022/09/15 03:32:33;;;;;;;4.28;1.90;;;;;;;16.50;100.00;94582.69;5050981;28;20495;-77
2022/09/15 03:34:59;;;;;;;6.38;2.00;;;;;;;16.60;100.00;94584.16;5045386;28;20033;-77
2022/09/15 03:37:25;;;;;;;6.55;2.30;;;;;;;16.57;100.00;94584.81;5046740;28;20463;-77
2022/09/15 03:39:50;;;;;;;3.17;1.80;;;;;;;16.60;100.00;94584.16;5041441;28;20036;-76
2022/09/15 03:42:15;;;;;;;3.78;2.10;;;;;;;16.56;100.00;94588.56;5047354;28;20041;-77
2022/09/15 03:44:41;;;;;;;4.28;2.20;;;;;;;16.60;100.00;94589.47;5043568;28;20100;-77
2022/09/15 03:47:06;;;;;;;3.72;1.92;;;;;;;16.54;100.00;94585.47;5042612;28;20102;-77
2022/09/15 03:49:32;;;;;;;3.35;1.73;;;;;;;16.47;100.00;94579.94;5038630;28;20056;-77
2022/09/15 03:51:57;;;;;;;4.40;2.10;;;;;;;16.54;100.00;94582.81;5050099;28;20041;-76
2022/09/15 03:54:24;;;;;;;2.90;1.58;;;;;;;16.64;100.00;94585.06;5047001;28;20045;-77
2022/09/15 03:56:50;;;;;;;5.57;1.90;;;;;;;16.59;100.00;94583.38;5040080;28;20071;-77
2022/09/15 03:59:20;;;;;;;2.90;1.70;;;;;;;16.65;100.00;94586.59;5042598;28;20038;-77
2022/09/15 04:01:49;;;;;;;3.72;1.73;;;;;;;16.70;100.00;94594.34;5043079;28;20049;-77
2022/09/15 04:04:16;;;;;;;6.35;1.90;;;;;;;16.77;100.00;94589.25;5043445;28;20067;-77
2022/09/15 04:06:42;;;;;;;4.53;2.08;;;;;;;16.70;100.00;94583.72;5053119;28;20507;-77
2022/09/15 04:09:08;;;;;;;4.03;2.03;;;;;;;16.73;100.00;94577.75;5044426;28;20055;-77
2022/09/15 04:11:35;;;;;;;6.10;2.03;;;;;;;16.85;100.00;94573.53;5049643;28;20037;-77
2022/09/15 04:14:01;;;;;;;3.80;1.90;;;;;;;16.77;100.00;94577.88;5038267;28;20040;-77
2022/09/15 04:16:27;;;;;;;3.83;2.00;;;;;;;16.80;100.00;94577.97;5043124;28;20705;-77
2022/09/15 04:18:54;;;;;;;3.67;1.77;;;;;;;16.77;100.00;94573.31;5036429;28;20056;-77
2022/09/15 04:21:22;;;;;;;3.88;1.52;;;;;;;16.68;100.00;94575.31;5041020;28;20041;-77
2022/09/15 04:23:49;;;;;;;2.88;1.60;;;;;;;16.80;100.00;94577.97;5043205;28;20033;-77
2022/09/15 04:26:26;;;;;;;5.68;2.20;;;;;;;16.73;100.00;94572.44;5045892;28;20051;-77
2022/09/15 04:28:52;;;;;;;2.88;1.48;;;;;;;16.78;100.00;94574.13;5042223;28;20053;-77
2022/09/15 04:31:19;;;;;;;6.10;1.70;;;;;;;16.85;100.00;94573.53;5047076;28;20732;-77
2022/09/15 04:33:46;;;;;;;4.00;1.73;;;;;;;16.82;100.00;94568.91;5050482;28;20395;-77
2022/09/15 04:36:18;;;;;;;5.25;2.42;;;;;;;16.84;100.00;94566.66;5040693;28;20060;-77
2022/09/15 04:38:44;;;;;;;3.85;1.70;;;;;;;16.89;100.00;94569.16;5039022;28;20033;-77
2022/09/15 04:41:10;;;;;;;2.95;1.65;;;;;;;16.83;100.00;94565.16;5040799;28;20589;-77
2022/09/15 04:43:36;;;;;;;2.50;1.38;;;;;;;16.88;100.00;94554.31;5041148;28;20041;-77
2022/09/15 04:46:02;;;;;;;3.92;1.80;;;;;;;16.91;100.00;94561.59;5044957;28;20048;-76
2022/09/15 04:48:27;;;;;;;3.50;1.50;;;;;;;16.98;100.00;94567.16;5046073;28;20075;-77
2022/09/15 04:50:53;;;;;;;2.40;1.35;;;;;;;16.88;100.00;94562.28;5047250;28;20033;-77
2022/09/15 04:53:19;;;;;;;5.45;1.60;;;;;;;16.99;100.00;94559.97;5041278;28;20106;-77
2022/09/15 04:55:44;;;;;;;3.65;1.50;;;;;;;16.93;100.00;94560.16;5047648;28;20495;-78
2022/09/15 04:58:10;;;;;;;2.50;1.60;;;;;;;16.95;100.00;94549.22;5040641;28;20040;-77
2022/09/15 05:00:42;;;;;;;3.70;1.67;;;;;;;16.92;100.00;94557.84;5033771;28;20415;-77
2022/09/15 05:03:09;;;;;;;4.13;1.60;;;;;;;16.92;100.00;94560.50;5042831;28;20041;-77
2022/09/15 05:05:35;;;;;;;2.28;1.40;;;;;;;16.98;100.00;94553.84;5046618;28;20040;-77
2022/09/15 05:08:00;;;;;;;4.38;1.50;;;;;;;16.92;100.00;94563.16;5046358;28;20037;-77
2022/09/15 05:10:26;;;;;;;3.10;1.70;;;;;;;17.02;100.00;94557.41;5046773;28;20427;-77
2022/09/15 05:12:53;;;;;;;3.25;2.00;;;;;;;16.89;100.00;94559.28;5046782;28;20550;-78
2022/09/15 05:15:18;;;;;;;2.03;1.17;;;;;;;16.99;100.00;94555.41;5042152;28;20065;-77
2022/09/15 05:17:43;;;;;;;2.22;1.40;;;;;;;17.03;100.00;94558.19;5037290;28;20065;-77
2022/09/15 05:20:09;;;;;;;4.55;1.40;;;;;;;17.03;100.00;94558.97;5038621;28;20037;-77
2022/09/15 05:22:34;;;;;;;2.92;1.73;;;;;;;17.02;100.00;94567.25;5046047;28;20415;-77
2022/09/15 05:25:00;;;;;;;4.70;1.50;;;;;;;16.99;100.00;94563.38;5042360;28;20166;-77
2022/09/15 05:27:25;;;;;;;2.45;1.40;;;;;;;17.03;100.00;94569.59;5040609;28;20120;-77
2022/09/15 05:29:51;;;;;;;2.60;1.48;;;;;;;16.97;100.00;94566.38;5040403;28;20043;-76
2022/09/15 05:32:16;;;;;;;3.15;1.70;;;;;;;16.95;100.00;94570.47;5036763;28;20072;-77
2022/09/15 05:34:42;;;;;;;2.75;1.25;;;;;;;16.95;100.00;94565.16;5045035;28;20105;-77
2022/09/15 05:37:09;;;;;;;2.40;1.23;;;;;;;16.92;100.00;94573.78;5048978;28;20045;-78
2022/09/15 05:39:34;;;;;;;4.57;1.65;;;;;;;16.88;100.00;94571.03;5047024;28;20626;-77
2022/09/15 05:42:00;;;;;;;1.88;1.30;;;;;;;16.92;100.00;94563.97;5049440;28;20040;-77
2022/09/15 05:44:25;;;;;;;3.38;1.50;;;;;;;16.88;100.00;94560.41;5035233;28;20060;-77
2022/09/15 05:46:51;;;;;;;2.13;1.50;;;;;;;16.96;100.00;94569.38;5044952;28;20518;-76
2022/09/15 05:49:16;;;;;;;4.43;1.77;;;;;;;16.91;100.00;94566.91;5041369;28;20076;-76
2022/09/15 05:51:42;;;;;;;3.13;1.17;;;;;;;16.94;100.00;94577.69;5047673;28;20045;-79
2022/09/15 05:54:07;;;;;;;2.70;1.80;;;;;;;16.92;100.00;94574.59;5046661;28;20067;-79
2022/09/15 05:56:33;;;;;;;2.97;1.30;;;;;;;16.95;100.00;94575.78;5042089;28;20415;-76
2022/09/15 05:58:58;;;;;;;3.67;1.50;;;;;;;16.92;100.00;94573.78;5038146;28;20049;-77
2022/09/15 06:01:26;;;;;;;2.45;1.52;;;;;;;16.95;100.00;94578.44;5042212;28;20049;-77
2022/09/15 06:03:53;;;;;;;4.53;1.40;;;;;;;16.95;100.00;94587.22;5036678;28;20735;-76
2022/09/15 06:06:20;;;;;;;5.57;1.50;;;;;;;16.96;100.00;94590.63;5039375;28;20102;-80
2022/09/15 06:08:48;;;;;;;4.38;1.60;;;;;;;17.03;100.00;94585.53;5045296;28;20532;-76
2022/09/15 06:11:17;;;;;;;5.22;1.90;;;;;;;17.02;100.00;94589.28;5056830;28;20033;-76
2022/09/15 06:13:44;;;;;;;2.25;1.40;;;;;;;16.98;100.00;94585.75;5039316;28;20092;-77
2022/09/15 06:16:17;;;;;;;3.05;1.70;;;;;;;17.01;100.00;94590.41;5041953;28;20040;-77
2022/09/15 06:18:42;;;;;;;3.53;1.58;;;;;;;17.02;100.00;94597.25;5046546;28;20049;-80
2022/09/15 06:21:14;;;;;;;2.55;1.35;;;;;;;17.01;100.00;94587.75;5039055;28;20123;-77
2022/09/15 06:23:40;;;;;;;2.78;1.48;;;;;;;17.02;100.00;94583.97;5043773;28;20443;-78
2022/09/15 06:26:07;;;;;;;5.75;1.60;;;;;;;17.03;100.00;94585.53;5049991;28;20039;-79
2022/09/15 06:28:32;;;;;;;3.08;1.48;;;;;;;17.02;100.00;94594.59;5041648;28;20508;-80
2022/09/15 06:30:58;;;;;;;3.00;1.63;;;;;;;17.05;100.00;94599.28;5039093;28;20034;-79
2022/09/15 06:33:23;;;;;;;3.10;1.55;;;;;;;17.02;100.00;94610.56;5046522;28;20041;-78
2022/09/15 06:35:49;;;;;;;2.38;1.42;;;;;;;17.03;100.00;94601.47;5048341;28;20045;-78
2022/09/15 06:38:14;;;;;;;3.13;1.48;;;;;;;17.00;100.00;94612.78;5047408;28;20124;-77
2022/09/15 06:40:40;;;;;;;2.53;1.40;;;;;;;16.98;100.00;94596.38;5041104;28;20049;-77
2022/09/15 06:43:05;;;;;;;4.03;1.40;;;;;;;17.02;100.00;94599.94;5043494;28;20046;-79
2022/09/15 06:45:31;;;;;;;7.50;1.73;;;;;;;17.06;100.00;94608.03;5046811;28;20033;-77
2022/09/15 06:47:56;;;;;;;3.00;1.27;;;;;;;17.03;100.00;94611.34;5047957;28;20075;-77
2022/09/15 06:50:22;;;;;;;3.88;1.92;;;;;;;16.97;100.00;94616.09;5049674;28;20569;-77
2022/09/15 06:52:47;;;;;;;3.10;1.20;;;;;;;16.88;100.00;94626.06;5046472;28;20041;-77
2022/09/15 06:55:13;;;;;;;3.28;1.50;;;;;;;16.53;100.00;94621.09;5036267;28;20095;-76
2022/09/15 06:57:38;;;;;;;2.15;1.40;;;;;;;16.17;100.00;94631.28;5052586;28;20119;-77
2022/09/15 07:00:05;;;;;;;5.20;1.77;;;;;;;15.92;100.00;94619.78;5049259;28;20472;-76
2022/09/15 07:02:31;;;;;;;5.88;1.52;;;;;;;15.82;100.00;94630.81;5047886;28;20037;-79
2022/09/15 07:04:56;;;;;;;3.13;1.65;;;;;;;15.61;100.00;94631.53;5040863;28;20044;-78
2022/09/15 07:07:22;;;;;;;5.43;2.00;;;;;;;15.57;100.00;94630.63;5051662;28;20495;-78
2022/09/15 07:09:48;;;;;;;3.97;1.75;;;;;;;15.50;100.00;94630.34;5049160;28;20037;-77
2022/09/15 07:12:13;;;;;;;2.75;1.65;;;;;;;15.44;100.00;94626.34;5046510;28;20052;-78
2022/09/15 07:14:39;;;;;;;4.35;1.85;;;;;;;15.44;100.00;94623.69;5049385;28;20103;-78
2022/09/15 07:17:04;;;;;;;3.63;1.83;;;;;;;15.44;100.00;94619.16;5047797;28;20037;-77
2022/09/15 07:19:30;;;;;;;4.35;1.70;;;;;;;15.41;100.00;94617.94;5047232;28;20041;-84
2022/09/15 07:21:55;;;;;;;5.18;1.80;;;;;;;15.45;100.00;94622.59;5048556;28;20461;-83
2022/09/15 07:24:21;;;;;;;6.45;1.80;;;;;;;15.48;100.00;94621.94;5063058;28;20086;-84
2022/09/15 07:26:46;;;;;;;3.90;1.83;;;;;;;15.52;100.00;94607.72;5044507;28;20049;-78
2022/09/15 07:29:11;;;;;;;5.00;1.73;;;;;;;15.65;100.00;94616.53;5051530;28;20687;-78
2022/09/15 07:31:37;;;;;;;4.38;1.92;;;;;;;15.74;100.00;94616.47;5044600;28;20056;-79
2022/09/15 07:34:04;;;;;;;2.90;1.75;;;;;;;15.79;100.00;94611.00;5043249;28;20037;-80
2022/09/15 07:36:30;;;;;;;5.20;2.10;;;;;;;15.95;100.00;94619.16;5040639;28;20037;-78
2022/09/15 07:38:57;;;;;;;6.20;1.80;;;;;;;16.05;100.00;94623.28;5042939;28;20106;-79
2022/09/15 07:41:25;;;;;;;5.68;1.88;;;;;;;16.14;100.00;94625.84;5035380;28;20048;-79
2022/09/15 07:43:56;;;;;;;3.25;1.80;;;;;;;16.21;100.00;94628.75;5041396;28;20037;-78
2022/09/15 07:46:24;;;;;;;3.45;1.60;;;;;;;16.35;100.00;94631.91;5060662;28;20504;-79
2022/09/15 07:48:51;;;;;;;4.22;1.50;;;;;;;16.50;100.00;94617.22;5044992;28;20045;-77
2022/09/15 07:51:17;;;;;;;5.25;1.77;;;;;;;16.65;100.00;94634.41;5041035;28;20045;-78
2022/09/15 07:53:45;;;;;;;3.60;1.92;;;;;;;16.82;100.00;94627.34;5047468;28;20053;-79
2022/09/15 07:56:11;;;;;;;5.05;1.77;;;;;;;17.03;100.00;94628.06;5041945;28;20414;-79
2022/09/15 07:58:36;;;;;;;4.50;1.80;;;;;;;17.26;100.00;94624.97;5041396;28;20029;-78
2022/09/15 08:01:10;;;;;;;3.60;1.50;;;;;;;17.28;100.00;94622.75;5042341;28;20160;-79
2022/09/15 08:03:40;;;;;;;3.78;1.50;;;;;;;17.35;100.00;94632.81;5039828;28;20534;-80
2022/09/15 08:06:07;;;;;;;3.35;1.80;;;;;;;17.34;100.00;94626.75;5045372;28;20052;-78
2022/09/15 08:08:32;;;;;;;4.90;1.60;;;;;;;17.37;100.00;94631.38;5045313;28;20041;-79
2022/09/15 08:10:58;;;;;;;2.90;1.63;;;;;;;17.31;100.00;94627.38;5043270;28;20038;-80
2022/09/15 08:13:24;;;;;;;3.10;1.63;;;;;;;17.28;100.00;94622.75;5043376;28;20037;-78
2022/09/15 08:15:49;;;;;;;2.92;1.48;;;;;;;17.40;100.00;94630.72;5047922;28;20686;-78
2022/09/15 08:18:15;;;;;;;3.97;1.80;;;;;;;17.53;100.00;94633.34;5048666;28;20041;-79
2022/09/15 08:20:47;;;;;;;4.63;1.80;;;;;;;17.48;100.00;94637.81;5039337;28;20410;-79
2022/09/15 08:23:13;;;;;;;2.53;1.70;;;;;;;17.53;100.00;94638.66;5044412;28;20044;-79
2022/09/15 08:25:38;;;;;;;3.10;1.67;;;;;;;17.59;100.00;94637.34;5044876;28;20033;-79
2022/09/15 08:28:04;;;;;;;2.47;1.50;;;;;;;17.66;100.00;94632.22;5042512;28;20071;-79
2022/09/15 08:30:30;;;;;;;2.53;1.45;;;;;;;17.73;100.00;94635.09;5053639;28;20021;-81
2022/09/15 08:32:56;;;;;;;5.25;2.17;;;;;;;17.72;100.00;94636.19;5075879;28;20037;-80
2022/09/15 08:35:22;;;;;;;3.65;1.80;;;;;;;17.78;100.00;94640.16;5071183;28;20056;-81
2022/09/15 08:37:47;;;;;;;4.07;1.80;;;;;;;17.88;100.00;94643.50;5062552;28;20032;-79
2022/09/15 08:40:19;;;;;;;3.25;1.70;;;;;;;17.87;100.00;94636.59;5070983;28;20056;-79
2022/09/15 08:42:49;;;;;;;6.53;1.70;;;;;;;18.00;100.00;94641.59;5074368;28;20036;-80
2022/09/15 08:45:21;;;;;;;3.80;1.83;;;;;;;18.11;100.00;94641.88;5074544;28;20028;-79
2022/09/15 08:47:50;;;;;;;4.18;1.90;;;;;;;18.13;100.00;94634.34;5073997;28;20056;-80
2022/09/15 08:50:27;;;;;;;4.60;1.73;;;;;;;18.15;100.00;94636.66;5065845;28;20084;-80
2022/09/15 08:53:10;;;;;;;5.07;2.00;;;;;;;18.32;100.00;94624.94;5070338;28;20024;-79
2022/09/15 08:55:52;;;;;;;3.90;1.60;;;;;;;18.48;100.00;94628.41;5076510;28;20029;-79
2022/09/15 08:58:20;;;;;;;2.33;1.60;;;;;;;18.70;100.00;94618.28;5074835;28;20128;-78
2022/09/15 09:00:50;;;;;;;5.28;1.70;;;;;;;18.86;100.00;94621.78;5074148;28;20035;-79
2022/09/15 09:04:00;;;;;;;2.33;1.30;;;;;;;19.12;100.00;94622.38;5067248;28;20029;-78
2022/09/15 09:06:59;;;;;;;3.47;1.73;;;;;;;19.19;100.00;94607.31;5077064;28;20037;-80
2022/09/15 09:09:39;;;;;;;4.25;1.42;;;;;;;19.31;100.00;94624.31;5067719;28;20030;-79
2022/09/15 09:12:14;;;;;;;4.13;1.85;;;;;;;19.46;100.00;94615.53;5069823;28;20044;-78
2022/09/15 09:14:45;;;;;;;2.55;1.42;;;;;;;19.67;100.00;94617.13;5050679;28;20068;-78
2022/09/15 09:17:14;;;;;;;4.40;1.90;;;;;;;19.77;100.00;94624.56;5040797;28;20114;-77
2022/09/15 09:19:47;;;;;;;4.32;1.70;;;;;;;19.70;100.00;94614.50;5046681;28;20075;-79
2022/09/15 09:22:17;;;;;;;3.47;1.50;;;;;;;19.65;100.00;94612.13;5041830;28;20052;-78
2022/09/15 09:24:46;;;;;;;5.57;1.85;;;;;;;19.75;100.00;94605.44;5039273;28;20063;-78
2022/09/15 09:27:20;;;;;;;7.63;1.80;;;;;;;19.79;100.00;94609.00;5045906;28;20321;-79
2022/09/15 09:29:48;;;;;;;4.90;1.70;;;;;;;19.70;100.00;94603.84;5036766;28;20075;-79
2022/09/15 09:32:26;;;;;;;5.50;1.77;;;;;;;19.69;100.00;94602.28;5039305;28;20029;-78
2022/09/15 09:35:17;;;;;;;2.65;1.70;;;;;;;19.74;100.00;94599.34;5038105;28;20040;-78
2022/09/15 09:37:43;;;;;;;5.93;1.80;;;;;;;19.88;100.00;94604.25;5049958;28;20571;-78
2022/09/15 09:40:15;;;;;;;3.58;2.00;;;;;;;19.89;100.00;94600.44;5053110;28;20174;-77
2022/09/15 09:42:42;;;;;;;3.72;1.77;;;;;;;20.05;100.00;94596.91;5044788;28;20041;-77
2022/09/15 09:45:12;;;;;;;4.28;1.63;;;;;;;20.07;100.00;94600.03;5041864;28;20040;-78
2022/09/15 09:47:42;;;;;;;4.15;2.00;;;;;;;20.05;100.00;94587.00;5048207;28;20043;-78
2022/09/15 09:50:37;;;;;;;5.75;2.17;;;;;;;20.24;100.00;94594.25;5049228;28;20044;-78
2022/09/15 09:53:19;;;;;;;2.90;1.70;;;;;;;20.34;100.00;94592.13;5041259;28;20040;-78
2022/09/15 09:55:45;;;;;;;5.20;1.77;;;;;;;20.09;100.00;94597.78;5063237;28;20040;-77
2022/09/15 09:58:16;;;;;;;4.53;2.05;;;;;;;19.95;100.00;94597.50;5034040;28;20466;-78
2022/09/15 10:00:42;;;;;;;3.28;1.88;;;;;;;19.74;100.00;94595.91;5045733;28;20410;-78
2022/09/15 10:03:20;;;;;;;2.70;1.65;;;;;;;19.74;100.00;94587.91;5042952;28;20037;-78
2022/09/15 10:06:01;;;;;;;3.38;1.70;;;;;;;19.77;100.00;94587.19;5040793;28;20414;-78
2022/09/15 10:08:27;;;;;;;6.07;1.98;;;;;;;19.96;100.00;94588.38;5047805;28;20045;-77
2022/09/15 10:10:55;;;;;;;4.47;1.80;;;;;;;20.52;100.00;94582.50;5043437;28;20064;-79
2022/09/15 10:13:21;;;;;;;3.08;1.70;;;;;;;20.97;100.00;94582.13;5040469;28;20048;-79
2022/09/15 10:15:54;;;;;;;5.40;1.58;;;;;;;21.46;100.00;94584.75;5032031;28;20056;-78
2022/09/15 10:18:40;;;;;;;3.17;1.70;;;;;;;21.91;97.27;94582.28;5048832;28;20048;-77
2022/09/15 10:21:08;;;;;;;4.10;1.90;;;;;;;22.45;94.26;94579.44;5045951;28;20124;-78
2022/09/15 10:23:34;;;;;;;3.35;1.83;;;;;;;21.51;97.93;94586.38;5044283;28;20037;-78
2022/09/15 10:26:20;;;;;;;3.55;1.60;;;;;;;22.12;96.30;94576.41;5049378;28;20044;-84
2022/09/15 10:29:25;;;;;;;2.85;1.70;;;;;;;22.43;92.08;94579.06;5041892;28;20037;-80
2022/09/15 10:31:50;;;;;;;5.93;1.80;;;;;;;22.43;88.67;94579.06;4998205;28;20050;-75
2022/09/15 10:34:30;;;;;;;2.90;1.52;;;;;;;22.51;91.75;94580.63;4997241;28;20042;-76
2022/09/15 10:37:25;;;;;;;3.70;1.60;;;;;;;22.27;88.24;94592.66;5023675;28;20056;-77
2022/09/15 10:39:57;;;;;;;3.33;1.83;;;;;;;21.89;93.79;94605.97;5035750;28;20117;-77
2022/09/15 10:42:46;;;;;;;2.40;1.38;;;;;;;21.52;94.20;94620.06;5044914;28;20041;-77
2022/09/15 10:45:45;;;;;;;4.93;1.70;;;;;;;21.42;97.98;94610.69;5056759;28;20037;-77
2022/09/15 10:48:29;;;;;;;2.22;1.50;;;;;;;21.05;99.25;94602.50;5036724;28;20081;-78
2022/09/15 10:51:08;;;;;;;9.98;2.55;;;;;;;20.94;100.00;94608.44;5045349;28;20044;-78
2022/09/15 10:53:46;;;;;;;4.07;2.00;;;;;;;20.89;100.00;94622.13;5040666;28;20417;-77
2022/09/15 10:56:25;;;;;;;5.30;1.90;;;;;;;20.57;100.00;94610.84;5039652;28;20040;-78
2022/09/15 10:59:20;;;;;;;2.65;1.80;;;;;;;20.46;98.38;94593.84;5043129;28;20044;-77
2022/09/15 11:01:56;;;;;;;5.95;1.85;;;;;;;20.71;100.00;94599.66;5039157;28;20045;-76
2022/09/15 11:04:37;;;;;;;4.95;1.98;;;;;;;20.93;98.57;94596.22;5049027;28;20049;-76
2022/09/15 11:07:35;;;;;;;5.15;1.70;;;;;;;20.84;97.77;94609.03;5045072;28;20048;-75
2022/09/15 11:10:03;;;;;;;5.18;2.42;;;;;;;21.09;96.81;94587.28;5035283;28;20084;-76
2022/09/15 11:12:55;;;;;;;8.07;1.90;;;;;;;22.03;95.00;94599.28;5035977;28;20034;-75
2022/09/15 11:15:39;;;;;;;4.32;1.60;;;;;;;21.93;91.28;94596.09;5037951;28;20041;-76
2022/09/15 11:18:22;;;;;;;5.85;2.10;;;;;;;22.42;86.60;94588.22;5035538;28;20143;-76
2022/09/15 11:20:53;;;;;;;4.40;1.90;;;;;;;23.10;85.32;94593.41;5035462;28;20045;-76
2022/09/15 11:23:32;;;;;;;5.57;2.03;;;;;;;23.13;84.36;94592.69;5040014;28;20052;-77
2022/09/15 11:26:06;;;;;;;3.25;1.83;;;;;;;22.93;81.96;94573.34;5047756;28;20044;-76
2022/09/15 11:28:46;;;;;;;4.80;2.20;;;;;;;23.72;79.33;94583.84;5037378;28;20052;-76
2022/09/15 11:31:15;;;;;;;2.72;1.88;;;;;;;23.32;80.43;94589.75;5042317;28;20037;-76
2022/09/15 11:33:50;;;;;;;5.57;2.10;;;;;;;24.76;75.09;94573.44;5042795;28;20680;-76
2022/09/15 11:36:23;;;;;;;4.60;2.35;;;;;;;24.42;73.02;94575.66;5046922;28;20462;-76
2022/09/15 11:39:06;;;;;;;3.93;2.23;;;;;;;23.48;77.78;94580.66;5046047;28;20044;-76
2022/09/15 11:41:37;;;;;;;3.60;2.10;;;;;;;23.34;81.00;94571.34;5049664;28;20040;-76
2022/09/15 11:44:17;;;;;;;7.55;2.38;;;;;;;23.73;74.89;94571.94;5042491;28;20047;-77